sensor_id;sensor_type;location;lat;lon;timestamp;P1;durP1;ratioP1;P2;durP2;ratioP2
2756;SDS011;1386;50.862;6.494;2023-07-09T07:25:48;6.83;;;5.07;;
2756;SDS011;1386;50.862;6.494;2023-07-09T07:28:15;7.30;;;5.00;;
2756;SDS011;1386;50.862;6.494;2023-07-09T07:30:42;9.53;;;5.20;;
2756;SDS011;1386;50.862;6.494;2023-07-09T07:33:09;6.30;;;5.27;;
2756;SDS011;1386;50.862;6.494;2023-07-09T07:35:36;8.43;;;6.00;;
2756;SDS011;1386;50.862;6.494;2023-07-09T07:38:03;9.43;;;4.90;;
2756;SDS011;1386;50.862;6.494;2023-07-09T07:40:30;7.10;;;5.33;;
2756;SDS011;1386;50.862;6.494;2023-07-09T07:42:59;7.47;;;5.30;;
2756;SDS011;1386;50.862;6.494;2023-07-09T07:45:26;6.80;;;5.53;;
2756;SDS011;1386;50.862;6.494;2023-07-09T07:47:53;6.87;;;4.90;;
2756;SDS011;1386;50.862;6.494;2023-07-09T07:50:20;5.67;;;5.03;;
2756;SDS011;1386;50.862;6.494;2023-07-09T07:52:46;7.40;;;5.30;;
2756;SDS011;1386;50.862;6.494;2023-07-09T07:55:14;15.63;;;5.00;;
2756;SDS011;1386;50.862;6.494;2023-07-09T07:57:41;6.07;;;5.13;;
2756;SDS011;1386;50.862;6.494;2023-07-09T08:00:10;8.40;;;5.10;;
2756;SDS011;1386;50.862;6.494;2023-07-09T08:02:38;7.57;;;4.90;;
2756;SDS011;1386;50.862;6.494;2023-07-09T08:05:05;9.07;;;4.30;;
2756;SDS011;1386;50.862;6.494;2023-07-09T08:07:32;25.53;;;9.00;;
2756;SDS011;1386;50.862;6.494;2023-07-09T08:10:02;11.50;;;6.40;;
2756;SDS011;1386;50.862;6.494;2023-07-09T08:12:29;5.93;;;5.33;;
2756;SDS011;1386;50.862;6.494;2023-07-09T08:14:56;7.77;;;5.20;;
2756;SDS011;1386;50.862;6.494;2023-07-09T08:17:24;6.30;;;5.27;;
2756;SDS011;1386;50.862;6.494;2023-07-09T08:19:51;7.00;;;4.87;;
2756;SDS011;1386;50.862;6.494;2023-07-09T08:22:19;8.73;;;5.30;;
2756;SDS011;1386;50.862;6.494;2023-07-09T08:24:47;5.60;;;5.00;;
2756;SDS011;1386;50.862;6.494;2023-07-09T08:27:14;7.30;;;5.20;;
2756;SDS011;1386;50.862;6.494;2023-07-09T08:29:41;9.17;;;4.80;;
2756;SDS011;1386;50.862;6.494;2023-07-09T08:32:10;7.37;;;4.90;;
2756;SDS011;1386;50.862;6.494;2023-07-09T08:37:48;6.90;;;4.17;;
2756;SDS011;1386;50.862;6.494;2023-07-09T08:40:22;4.57;;;3.80;;
2756;SDS011;1386;50.862;6.494;2023-07-09T08:43:23;6.43;;;4.37;;
2756;SDS011;1386;50.862;6.494;2023-07-09T08:46:01;5.17;;;4.07;;
2756;SDS011;1386;50.862;6.494;2023-07-09T08:48:36;4.77;;;3.80;;
2756;SDS011;1386;50.862;6.494;2023-07-09T08:51:08;8.30;;;4.27;;
2756;SDS011;1386;50.862;6.494;2023-07-09T08:53:44;5.40;;;4.20;;
2756;SDS011;1386;50.862;6.494;2023-07-09T08:56:16;5.37;;;4.10;;
2756;SDS011;1386;50.862;6.494;2023-07-09T08:58:44;6.23;;;3.90;;
2756;SDS011;1386;50.862;6.494;2023-07-09T09:01:17;4.50;;;3.70;;
2756;SDS011;1386;50.862;6.494;2023-07-09T09:06:40;5.10;;;4.20;;
2756;SDS011;1386;50.862;6.494;2023-07-09T09:09:15;4.20;;;3.80;;
2756;SDS011;1386;50.862;6.494;2023-07-09T09:11:48;5.33;;;3.57;;
2756;SDS011;1386;50.862;6.494;2023-07-09T09:14:24;5.47;;;3.60;;
2756;SDS011;1386;50.862;6.494;2023-07-09T09:16:54;8.90;;;3.63;;
2756;SDS011;1386;50.862;6.494;2023-07-09T09:19:23;5.70;;;3.17;;
2756;SDS011;1386;50.862;6.494;2023-07-09T09:21:54;7.50;;;3.80;;
2756;SDS011;1386;50.862;6.494;2023-07-09T09:24:29;5.53;;;4.00;;
2756;SDS011;1386;50.862;6.494;2023-07-09T09:27:00;4.70;;;3.17;;
2756;SDS011;1386;50.862;6.494;2023-07-09T09:29:29;6.77;;;3.83;;
2756;SDS011;1386;50.862;6.494;2023-07-09T09:31:57;4.63;;;4.13;;
2756;SDS011;1386;50.862;6.494;2023-07-09T09:34:31;4.80;;;3.60;;
2756;SDS011;1386;50.862;6.494;2023-07-09T09:36:58;7.00;;;4.00;;
2756;SDS011;1386;50.862;6.494;2023-07-09T09:39:25;4.73;;;3.73;;
2756;SDS011;1386;50.862;6.494;2023-07-09T09:41:54;3.80;;;3.40;;
2756;SDS011;1386;50.862;6.494;2023-07-09T09:44:24;6.93;;;3.97;;
2756;SDS011;1386;50.862;6.494;2023-07-09T09:46:52;7.37;;;3.67;;
2756;SDS011;1386;50.862;6.494;2023-07-09T09:49:21;5.43;;;3.87;;
2756;SDS011;1386;50.862;6.494;2023-07-09T09:51:48;6.33;;;3.57;;
2756;SDS011;1386;50.862;6.494;2023-07-09T09:54:16;4.50;;;3.13;;
2756;SDS011;1386;50.862;6.494;2023-07-09T09:56:47;5.63;;;3.50;;
2756;SDS011;1386;50.862;6.494;2023-07-09T09:59:16;4.73;;;2.93;;
2756;SDS011;1386;50.862;6.494;2023-07-09T10:01:46;4.70;;;3.20;;
2756;SDS011;1386;50.862;6.494;2023-07-09T10:04:16;4.03;;;2.93;;
2756;SDS011;1386;50.862;6.494;2023-07-09T10:06:45;3.00;;;2.47;;
2756;SDS011;1386;50.862;6.494;2023-07-09T10:09:16;6.30;;;3.30;;
2756;SDS011;1386;50.862;6.494;2023-07-09T10:11:53;3.90;;;2.97;;
2756;SDS011;1386;50.862;6.494;2023-07-09T10:14:31;4.10;;;3.27;;
2756;SDS011;1386;50.862;6.494;2023-07-09T10:17:03;5.67;;;3.00;;
2756;SDS011;1386;50.862;6.494;2023-07-09T10:19:59;4.77;;;3.00;;
2756;SDS011;1386;50.862;6.494;2023-07-09T10:22:37;4.93;;;2.80;;
2756;SDS011;1386;50.862;6.494;2023-07-09T10:25:14;4.10;;;2.90;;
2756;SDS011;1386;50.862;6.494;2023-07-09T10:27:57;3.90;;;3.03;;
2756;SDS011;1386;50.862;6.494;2023-07-09T10:30:41;9.40;;;3.10;;
2756;SDS011;1386;50.862;6.494;2023-07-09T10:33:16;4.27;;;3.00;;
2756;SDS011;1386;50.862;6.494;2023-07-09T10:35:53;6.13;;;3.50;;
2756;SDS011;1386;50.862;6.494;2023-07-09T10:38:31;5.63;;;2.90;;
2756;SDS011;1386;50.862;6.494;2023-07-09T10:41:09;6.77;;;3.60;;
2756;SDS011;1386;50.862;6.494;2023-07-09T10:43:41;5.70;;;3.17;;
2756;SDS011;1386;50.862;6.494;2023-07-09T10:46:12;6.27;;;3.20;;
2756;SDS011;1386;50.862;6.494;2023-07-09T10:48:42;4.70;;;3.00;;
2756;SDS011;1386;50.862;6.494;2023-07-09T10:51:18;4.37;;;3.33;;
2756;SDS011;1386;50.862;6.494;2023-07-09T10:53:50;5.10;;;2.90;;
2756;SDS011;1386;50.862;6.494;2023-07-09T10:56:28;8.03;;;3.30;;
2756;SDS011;1386;50.862;6.494;2023-07-09T10:59:03;4.00;;;3.03;;
2756;SDS011;1386;50.862;6.494;2023-07-09T11:01:47;5.90;;;3.00;;
2756;SDS011;1386;50.862;6.494;2023-07-09T11:04:20;4.10;;;3.20;;
2756;SDS011;1386;50.862;6.494;2023-07-09T11:06:56;3.80;;;2.40;;
2756;SDS011;1386;50.862;6.494;2023-07-09T11:09:29;3.90;;;3.03;;
2756;SDS011;1386;50.862;6.494;2023-07-09T11:12:00;4.87;;;3.03;;
2756;SDS011;1386;50.862;6.494;2023-07-09T11:14:32;3.53;;;2.60;;
2756;SDS011;1386;50.862;6.494;2023-07-09T11:17:03;6.87;;;3.30;;
2756;SDS011;1386;50.862;6.494;2023-07-09T11:19:40;3.50;;;2.93;;
2756;SDS011;1386;50.862;6.494;2023-07-09T11:22:14;4.43;;;3.37;;
2756;SDS011;1386;50.862;6.494;2023-07-09T11:24:47;6.20;;;3.17;;
2756;SDS011;1386;50.862;6.494;2023-07-09T11:27:22;5.43;;;3.67;;
2756;SDS011;1386;50.862;6.494;2023-07-09T11:30:03;7.70;;;4.57;;
2756;SDS011;1386;50.862;6.494;2023-07-09T11:32:50;5.97;;;4.10;;
2756;SDS011;1386;50.862;6.494;2023-07-09T11:35:20;7.07;;;4.03;;
2756;SDS011;1386;50.862;6.494;2023-07-09T11:37:48;6.27;;;3.80;;
2756;SDS011;1386;50.862;6.494;2023-07-09T11:46:50;4.83;;;3.43;;
2756;SDS011;1386;50.862;6.494;2023-07-09T11:49:25;5.40;;;3.30;;
2756;SDS011;1386;50.862;6.494;2023-07-09T11:51:58;5.37;;;3.50;;
2756;SDS011;1386;50.862;6.494;2023-07-09T11:54:28;4.77;;;3.23;;
2756;SDS011;1386;50.862;6.494;2023-07-09T11:57:01;7.33;;;2.90;;
2756;SDS011;1386;50.862;6.494;2023-07-09T11:59:29;8.63;;;3.40;;
2756;SDS011;1386;50.862;6.494;2023-07-09T12:01:57;9.53;;;3.80;;
2756;SDS011;1386;50.862;6.494;2023-07-09T12:04:31;4.53;;;3.67;;
2756;SDS011;1386;50.862;6.494;2023-07-09T12:07:01;5.70;;;3.73;;
2756;SDS011;1386;50.862;6.494;2023-07-09T12:09:33;4.33;;;3.40;;
2756;SDS011;1386;50.862;6.494;2023-07-09T12:12:15;4.53;;;3.17;;
2756;SDS011;1386;50.862;6.494;2023-07-09T12:14:44;8.37;;;3.80;;
2756;SDS011;1386;50.862;6.494;2023-07-09T12:17:12;5.07;;;3.63;;
2756;SDS011;1386;50.862;6.494;2023-07-09T12:19:45;5.10;;;3.43;;
2756;SDS011;1386;50.862;6.494;2023-07-09T12:22:15;5.33;;;3.27;;
2756;SDS011;1386;50.862;6.494;2023-07-09T12:24:47;4.83;;;3.30;;
2756;SDS011;1386;50.862;6.494;2023-07-09T12:27:19;5.63;;;3.33;;
2756;SDS011;1386;50.862;6.494;2023-07-09T12:29:52;4.27;;;3.27;;
2756;SDS011;1386;50.862;6.494;2023-07-09T12:32:22;5.37;;;3.30;;
2756;SDS011;1386;50.862;6.494;2023-07-09T12:34:52;5.07;;;3.77;;
2756;SDS011;1386;50.862;6.494;2023-07-09T12:37:20;4.93;;;3.33;;
2756;SDS011;1386;50.862;6.494;2023-07-09T12:39:49;5.07;;;3.33;;
2756;SDS011;1386;50.862;6.494;2023-07-09T12:42:18;5.10;;;3.23;;
2756;SDS011;1386;50.862;6.494;2023-07-09T12:44:46;5.13;;;3.57;;
2756;SDS011;1386;50.862;6.494;2023-07-09T12:47:15;4.23;;;3.00;;
2756;SDS011;1386;50.862;6.494;2023-07-09T12:49:45;4.47;;;3.53;;
2756;SDS011;1386;50.862;6.494;2023-07-09T12:52:17;6.33;;;3.80;;
2756;SDS011;1386;50.862;6.494;2023-07-09T12:54:51;5.50;;;3.40;;
2756;SDS011;1386;50.862;6.494;2023-07-09T12:57:21;5.03;;;3.80;;
2756;SDS011;1386;50.862;6.494;2023-07-09T12:59:53;4.33;;;3.23;;
2756;SDS011;1386;50.862;6.494;2023-07-09T13:02:37;3.93;;;3.50;;
2756;SDS011;1386;50.862;6.494;2023-07-09T13:05:06;5.10;;;3.77;;
2756;SDS011;1386;50.862;6.494;2023-07-09T13:07:52;5.13;;;3.27;;
2756;SDS011;1386;50.862;6.494;2023-07-09T13:10:22;26.43;;;4.40;;
2756;SDS011;1386;50.862;6.494;2023-07-09T13:12:52;6.00;;;3.90;;
2756;SDS011;1386;50.862;6.494;2023-07-09T13:15:27;5.17;;;3.53;;
2756;SDS011;1386;50.862;6.494;2023-07-09T13:18:05;6.87;;;3.47;;
2756;SDS011;1386;50.862;6.494;2023-07-09T13:20:37;7.43;;;4.10;;
2756;SDS011;1386;50.862;6.494;2023-07-09T13:23:10;12.03;;;4.70;;
2756;SDS011;1386;50.862;6.494;2023-07-09T13:25:38;9.10;;;4.50;;
2756;SDS011;1386;50.862;6.494;2023-07-09T13:28:07;7.90;;;3.77;;
2756;SDS011;1386;50.862;6.494;2023-07-09T13:30:44;6.53;;;3.40;;
2756;SDS011;1386;50.862;6.494;2023-07-09T13:33:12;6.53;;;3.80;;
2756;SDS011;1386;50.862;6.494;2023-07-09T13:35:46;5.37;;;3.53;;
2756;SDS011;1386;50.862;6.494;2023-07-09T13:38:14;8.30;;;4.10;;
2756;SDS011;1386;50.862;6.494;2023-07-09T13:40:42;7.93;;;3.87;;
2756;SDS011;1386;50.862;6.494;2023-07-09T13:43:13;8.57;;;3.83;;
2756;SDS011;1386;50.862;6.494;2023-07-09T13:45:42;5.67;;;3.70;;
2756;SDS011;1386;50.862;6.494;2023-07-09T13:48:13;6.70;;;3.87;;
2756;SDS011;1386;50.862;6.494;2023-07-09T13:50:42;6.37;;;3.27;;
2756;SDS011;1386;50.862;6.494;2023-07-09T13:53:14;6.03;;;3.27;;
2756;SDS011;1386;50.862;6.494;2023-07-09T13:55:43;7.63;;;3.47;;
2756;SDS011;1386;50.862;6.494;2023-07-09T13:58:10;6.27;;;3.30;;
2756;SDS011;1386;50.862;6.494;2023-07-09T14:00:38;7.20;;;3.17;;
2756;SDS011;1386;50.862;6.494;2023-07-09T14:03:07;10.27;;;4.40;;
2756;SDS011;1386;50.862;6.494;2023-07-09T14:05:40;5.57;;;3.87;;
2756;SDS011;1386;50.862;6.494;2023-07-09T14:08:07;5.37;;;3.50;;
2756;SDS011;1386;50.862;6.494;2023-07-09T14:10:35;8.70;;;4.17;;
2756;SDS011;1386;50.862;6.494;2023-07-09T14:13:02;9.37;;;4.70;;
2756;SDS011;1386;50.862;6.494;2023-07-09T14:15:30;12.13;;;4.57;;
2756;SDS011;1386;50.862;6.494;2023-07-09T14:17:56;10.73;;;4.63;;
2756;SDS011;1386;50.862;6.494;2023-07-09T14:20:25;8.77;;;5.37;;
2756;SDS011;1386;50.862;6.494;2023-07-09T14:22:52;10.20;;;5.80;;
2756;SDS011;1386;50.862;6.494;2023-07-09T14:25:19;13.40;;;5.80;;
2756;SDS011;1386;50.862;6.494;2023-07-09T14:27:49;10.90;;;6.20;;
2756;SDS011;1386;50.862;6.494;2023-07-09T14:30:17;12.67;;;7.13;;
2756;SDS011;1386;50.862;6.494;2023-07-09T14:32:45;10.90;;;6.77;;
2756;SDS011;1386;50.862;6.494;2023-07-09T14:35:14;9.00;;;6.97;;
2756;SDS011;1386;50.862;6.494;2023-07-09T14:37:43;10.10;;;7.30;;
2756;SDS011;1386;50.862;6.494;2023-07-09T14:40:11;8.93;;;7.27;;
2756;SDS011;1386;50.862;6.494;2023-07-09T14:42:39;11.20;;;6.77;;
2756;SDS011;1386;50.862;6.494;2023-07-09T14:45:15;8.77;;;7.87;;
2756;SDS011;1386;50.862;6.494;2023-07-09T14:47:43;13.37;;;8.70;;
2756;SDS011;1386;50.862;6.494;2023-07-09T14:50:10;11.77;;;8.77;;
2756;SDS011;1386;50.862;6.494;2023-07-09T14:52:40;10.03;;;8.53;;
2756;SDS011;1386;50.862;6.494;2023-07-09T14:55:12;14.17;;;11.00;;
2756;SDS011;1386;50.862;6.494;2023-07-09T14:57:44;12.53;;;9.37;;
2756;SDS011;1386;50.862;6.494;2023-07-09T15:00:16;15.23;;;12.30;;
2756;SDS011;1386;50.862;6.494;2023-07-09T15:02:48;14.30;;;12.30;;
2756;SDS011;1386;50.862;6.494;2023-07-09T15:05:16;14.47;;;11.97;;
2756;SDS011;1386;50.862;6.494;2023-07-09T15:07:51;16.23;;;11.70;;
2756;SDS011;1386;50.862;6.494;2023-07-09T15:10:25;19.50;;;11.83;;
2756;SDS011;1386;50.862;6.494;2023-07-09T15:12:55;12.20;;;9.90;;
2756;SDS011;1386;50.862;6.494;2023-07-09T15:15:24;13.20;;;11.80;;
2756;SDS011;1386;50.862;6.494;2023-07-09T15:17:56;14.87;;;11.27;;
2756;SDS011;1386;50.862;6.494;2023-07-09T15:20:26;15.23;;;11.60;;
2756;SDS011;1386;50.862;6.494;2023-07-09T15:23:05;12.13;;;10.67;;
2756;SDS011;1386;50.862;6.494;2023-07-09T15:25:32;14.67;;;11.73;;
2756;SDS011;1386;50.862;6.494;2023-07-09T15:27:59;15.27;;;11.50;;
2756;SDS011;1386;50.862;6.494;2023-07-09T15:30:27;13.77;;;10.77;;
2756;SDS011;1386;50.862;6.494;2023-07-09T15:32:57;13.70;;;11.70;;
2756;SDS011;1386;50.862;6.494;2023-07-09T15:35:26;16.20;;;10.87;;
2756;SDS011;1386;50.862;6.494;2023-07-09T15:38:05;12.83;;;10.90;;
2756;SDS011;1386;50.862;6.494;2023-07-09T15:40:54;12.20;;;9.33;;
2756;SDS011;1386;50.862;6.494;2023-07-09T15:43:21;10.33;;;9.23;;
2756;SDS011;1386;50.862;6.494;2023-07-09T15:45:51;11.87;;;9.17;;
2756;SDS011;1386;50.862;6.494;2023-07-09T15:48:21;15.80;;;9.57;;
2756;SDS011;1386;50.862;6.494;2023-07-09T15:50:51;10.43;;;9.10;;
2756;SDS011;1386;50.862;6.494;2023-07-09T15:53:19;8.73;;;6.93;;
2756;SDS011;1386;50.862;6.494;2023-07-09T15:55:47;11.83;;;8.03;;
2756;SDS011;1386;50.862;6.494;2023-07-09T15:58:15;9.60;;;8.60;;
2756;SDS011;1386;50.862;6.494;2023-07-09T16:00:46;11.23;;;8.57;;
2756;SDS011;1386;50.862;6.494;2023-07-09T16:03:14;9.97;;;7.83;;
2756;SDS011;1386;50.862;6.494;2023-07-09T16:05:42;9.20;;;8.30;;
2756;SDS011;1386;50.862;6.494;2023-07-09T16:08:10;11.13;;;7.97;;
2756;SDS011;1386;50.862;6.494;2023-07-09T16:10:37;9.03;;;7.67;;
2756;SDS011;1386;50.862;6.494;2023-07-09T16:13:04;9.37;;;8.43;;
2756;SDS011;1386;50.862;6.494;2023-07-09T16:18:43;8.47;;;6.97;;
2756;SDS011;1386;50.862;6.494;2023-07-09T16:21:13;23.23;;;13.93;;
2756;SDS011;1386;50.862;6.494;2023-07-09T16:23:47;9.03;;;7.10;;
2756;SDS011;1386;50.862;6.494;2023-07-09T16:26:15;11.10;;;6.93;;
2756;SDS011;1386;50.862;6.494;2023-07-09T16:28:42;10.67;;;6.70;;
2756;SDS011;1386;50.862;6.494;2023-07-09T16:31:11;7.77;;;6.43;;
2756;SDS011;1386;50.862;6.494;2023-07-09T16:33:38;7.67;;;6.87;;
2756;SDS011;1386;50.862;6.494;2023-07-09T16:36:16;9.67;;;6.40;;
2756;SDS011;1386;50.862;6.494;2023-07-09T16:38:44;10.63;;;7.90;;
2756;SDS011;1386;50.862;6.494;2023-07-09T16:41:14;9.70;;;8.13;;
2756;SDS011;1386;50.862;6.494;2023-07-09T16:43:42;8.87;;;6.97;;
2756;SDS011;1386;50.862;6.494;2023-07-09T16:46:12;9.10;;;6.97;;
2756;SDS011;1386;50.862;6.494;2023-07-09T16:48:45;9.47;;;7.50;;
2756;SDS011;1386;50.862;6.494;2023-07-09T16:51:14;7.77;;;6.47;;
2756;SDS011;1386;50.862;6.494;2023-07-09T16:53:43;10.27;;;7.83;;
2756;SDS011;1386;50.862;6.494;2023-07-09T16:56:10;8.23;;;6.60;;
2756;SDS011;1386;50.862;6.494;2023-07-09T16:58:38;8.23;;;6.73;;
2756;SDS011;1386;50.862;6.494;2023-07-09T17:01:05;9.20;;;7.40;;
2756;SDS011;1386;50.862;6.494;2023-07-09T17:03:32;7.20;;;6.50;;
2756;SDS011;1386;50.862;6.494;2023-07-09T17:05:59;7.50;;;6.50;;
2756;SDS011;1386;50.862;6.494;2023-07-09T17:08:27;9.07;;;6.70;;
2756;SDS011;1386;50.862;6.494;2023-07-09T17:10:54;8.23;;;7.10;;
2756;SDS011;1386;50.862;6.494;2023-07-09T17:13:23;10.80;;;7.30;;
2756;SDS011;1386;50.862;6.494;2023-07-09T17:15:52;12.60;;;8.47;;
2756;SDS011;1386;50.862;6.494;2023-07-09T17:18:20;7.50;;;6.80;;
2756;SDS011;1386;50.862;6.494;2023-07-09T17:20:48;9.00;;;6.63;;
2756;SDS011;1386;50.862;6.494;2023-07-09T17:23:21;8.60;;;7.00;;
2756;SDS011;1386;50.862;6.494;2023-07-09T17:25:56;10.47;;;6.60;;
2756;SDS011;1386;50.862;6.494;2023-07-09T17:28:25;10.10;;;8.00;;
2756;SDS011;1386;50.862;6.494;2023-07-09T17:30:53;12.60;;;9.90;;
2756;SDS011;1386;50.862;6.494;2023-07-09T17:33:21;9.17;;;7.67;;
2756;SDS011;1386;50.862;6.494;2023-07-09T17:35:51;9.50;;;7.37;;
2756;SDS011;1386;50.862;6.494;2023-07-09T17:38:21;12.10;;;8.07;;
2756;SDS011;1386;50.862;6.494;2023-07-09T17:40:49;8.73;;;6.97;;
2756;SDS011;1386;50.862;6.494;2023-07-09T17:43:23;7.17;;;6.47;;
2756;SDS011;1386;50.862;6.494;2023-07-09T17:45:54;7.60;;;6.80;;
2756;SDS011;1386;50.862;6.494;2023-07-09T17:48:22;11.37;;;6.43;;
2756;SDS011;1386;50.862;6.494;2023-07-09T17:50:54;8.23;;;6.50;;
2756;SDS011;1386;50.862;6.494;2023-07-09T17:53:39;6.80;;;6.10;;
2756;SDS011;1386;50.862;6.494;2023-07-09T17:56:23;8.60;;;6.27;;
2756;SDS011;1386;50.862;6.494;2023-07-09T17:58:56;9.20;;;6.87;;
2756;SDS011;1386;50.862;6.494;2023-07-09T18:01:23;9.00;;;6.70;;
2756;SDS011;1386;50.862;6.494;2023-07-09T18:03:49;9.97;;;7.37;;
2756;SDS011;1386;50.862;6.494;2023-07-09T18:06:16;8.43;;;6.73;;
2756;SDS011;1386;50.862;6.494;2023-07-09T18:08:45;6.83;;;6.13;;
2756;SDS011;1386;50.862;6.494;2023-07-09T18:11:19;8.43;;;6.77;;
2756;SDS011;1386;50.862;6.494;2023-07-09T18:13:50;9.10;;;6.40;;
2756;SDS011;1386;50.862;6.494;2023-07-09T18:16:18;11.03;;;7.23;;
2756;SDS011;1386;50.862;6.494;2023-07-09T18:18:45;8.60;;;6.70;;
2756;SDS011;1386;50.862;6.494;2023-07-09T18:21:12;7.20;;;5.80;;
2756;SDS011;1386;50.862;6.494;2023-07-09T18:23:40;6.87;;;6.20;;
2756;SDS011;1386;50.862;6.494;2023-07-09T18:26:07;7.70;;;6.00;;
2756;SDS011;1386;50.862;6.494;2023-07-09T18:28:38;9.63;;;7.53;;
2756;SDS011;1386;50.862;6.494;2023-07-09T18:31:08;7.80;;;5.93;;
2756;SDS011;1386;50.862;6.494;2023-07-09T18:33:37;9.47;;;6.50;;
2756;SDS011;1386;50.862;6.494;2023-07-09T18:36:04;11.60;;;7.00;;
2756;SDS011;1386;50.862;6.494;2023-07-09T18:38:31;7.83;;;6.50;;
2756;SDS011;1386;50.862;6.494;2023-07-09T18:40:58;10.97;;;6.70;;
2756;SDS011;1386;50.862;6.494;2023-07-09T18:43:25;8.23;;;6.20;;
2756;SDS011;1386;50.862;6.494;2023-07-09T18:45:52;7.50;;;6.43;;
2756;SDS011;1386;50.862;6.494;2023-07-09T18:48:20;7.73;;;6.00;;
2756;SDS011;1386;50.862;6.494;2023-07-09T18:50:50;8.77;;;7.03;;
2756;SDS011;1386;50.862;6.494;2023-07-09T18:53:20;8.90;;;6.90;;
2756;SDS011;1386;50.862;6.494;2023-07-09T18:55:49;7.83;;;6.37;;
2756;SDS011;1386;50.862;6.494;2023-07-09T18:58:18;9.53;;;6.53;;
2756;SDS011;1386;50.862;6.494;2023-07-09T19:00:49;7.50;;;6.47;;
2756;SDS011;1386;50.862;6.494;2023-07-09T19:03:17;8.47;;;6.20;;
2756;SDS011;1386;50.862;6.494;2023-07-09T19:05:47;7.63;;;6.70;;
2756;SDS011;1386;50.862;6.494;2023-07-09T19:08:19;8.70;;;7.10;;
2756;SDS011;1386;50.862;6.494;2023-07-09T19:10:48;9.87;;;6.50;;
2756;SDS011;1386;50.862;6.494;2023-07-09T19:13:15;8.30;;;6.93;;
2756;SDS011;1386;50.862;6.494;2023-07-09T19:15:43;9.23;;;7.17;;
2756;SDS011;1386;50.862;6.494;2023-07-09T19:18:14;7.90;;;7.10;;
2756;SDS011;1386;50.862;6.494;2023-07-09T19:20:44;8.97;;;6.77;;
2756;SDS011;1386;50.862;6.494;2023-07-09T19:23:12;9.70;;;7.87;;
2756;SDS011;1386;50.862;6.494;2023-07-09T19:25:44;11.40;;;7.83;;
2756;SDS011;1386;50.862;6.494;2023-07-09T19:28:11;11.40;;;8.03;;
2756;SDS011;1386;50.862;6.494;2023-07-09T19:30:42;10.20;;;7.60;;
2756;SDS011;1386;50.862;6.494;2023-07-09T19:35:46;10.17;;;7.47;;
2756;SDS011;1386;50.862;6.494;2023-07-09T19:38:13;8.50;;;7.63;;
2756;SDS011;1386;50.862;6.494;2023-07-09T19:40:40;7.73;;;6.87;;
2756;SDS011;1386;50.862;6.494;2023-07-09T19:43:10;8.53;;;7.03;;
2756;SDS011;1386;50.862;6.494;2023-07-09T19:45:39;14.83;;;7.60;;
2756;SDS011;1386;50.862;6.494;2023-07-09T19:48:08;10.43;;;8.33;;
2756;SDS011;1386;50.862;6.494;2023-07-09T19:50:39;11.50;;;8.17;;
2756;SDS011;1386;50.862;6.494;2023-07-09T19:53:13;10.63;;;7.47;;
2756;SDS011;1386;50.862;6.494;2023-07-09T19:55:43;10.13;;;8.47;;
2756;SDS011;1386;50.862;6.494;2023-07-09T19:58:12;9.23;;;7.80;;
2756;SDS011;1386;50.862;6.494;2023-07-09T20:00:42;9.73;;;7.87;;
2756;SDS011;1386;50.862;6.494;2023-07-09T20:03:11;8.20;;;7.37;;
2756;SDS011;1386;50.862;6.494;2023-07-09T20:05:48;11.43;;;7.67;;
2756;SDS011;1386;50.862;6.494;2023-07-09T20:08:23;12.97;;;8.37;;
2756;SDS011;1386;50.862;6.494;2023-07-09T20:10:53;9.80;;;8.20;;
2756;SDS011;1386;50.862;6.494;2023-07-09T20:13:25;8.80;;;7.90;;
2756;SDS011;1386;50.862;6.494;2023-07-09T20:15:53;10.00;;;7.90;;
2756;SDS011;1386;50.862;6.494;2023-07-09T20:18:21;11.20;;;9.20;;
2756;SDS011;1386;50.862;6.494;2023-07-09T20:20:49;8.97;;;7.83;;
2756;SDS011;1386;50.862;6.494;2023-07-09T20:23:17;13.33;;;8.40;;
2756;SDS011;1386;50.862;6.494;2023-07-09T20:25:44;9.50;;;8.07;;
2756;SDS011;1386;50.862;6.494;2023-07-09T20:28:14;12.90;;;7.90;;
2756;SDS011;1386;50.862;6.494;2023-07-09T20:30:45;14.17;;;9.40;;
2756;SDS011;1386;50.862;6.494;2023-07-09T20:33:21;11.33;;;8.23;;
2756;SDS011;1386;50.862;6.494;2023-07-09T20:35:48;12.53;;;9.07;;
2756;SDS011;1386;50.862;6.494;2023-07-09T20:38:17;11.80;;;9.17;;
2756;SDS011;1386;50.862;6.494;2023-07-09T20:40:50;11.47;;;8.53;;
2756;SDS011;1386;50.862;6.494;2023-07-09T20:43:18;10.80;;;9.37;;
2756;SDS011;1386;50.862;6.494;2023-07-09T20:45:54;11.23;;;8.00;;
2756;SDS011;1386;50.862;6.494;2023-07-09T20:48:22;9.73;;;8.20;;
2756;SDS011;1386;50.862;6.494;2023-07-09T20:50:49;14.37;;;8.60;;
2756;SDS011;1386;50.862;6.494;2023-07-09T20:53:21;9.37;;;8.00;;
2756;SDS011;1386;50.862;6.494;2023-07-09T20:55:49;9.30;;;8.27;;
2756;SDS011;1386;50.862;6.494;2023-07-09T20:58:20;14.07;;;9.30;;
2756;SDS011;1386;50.862;6.494;2023-07-09T21:00:50;10.90;;;9.47;;
2756;SDS011;1386;50.862;6.494;2023-07-09T21:03:21;12.10;;;9.00;;
2756;SDS011;1386;50.862;6.494;2023-07-09T21:05:49;9.93;;;7.90;;
2756;SDS011;1386;50.862;6.494;2023-07-09T21:08:17;12.97;;;8.77;;
2756;SDS011;1386;50.862;6.494;2023-07-09T21:10:45;11.70;;;8.67;;
2756;SDS011;1386;50.862;6.494;2023-07-09T21:13:13;13.27;;;8.50;;
2756;SDS011;1386;50.862;6.494;2023-07-09T21:15:42;9.83;;;7.60;;
2756;SDS011;1386;50.862;6.494;2023-07-09T21:18:12;10.20;;;8.63;;
2756;SDS011;1386;50.862;6.494;2023-07-09T21:20:43;12.80;;;9.10;;
2756;SDS011;1386;50.862;6.494;2023-07-09T21:23:12;12.80;;;9.20;;
2756;SDS011;1386;50.862;6.494;2023-07-09T21:25:40;10.33;;;9.27;;
2756;SDS011;1386;50.862;6.494;2023-07-09T21:28:07;11.43;;;7.80;;
2756;SDS011;1386;50.862;6.494;2023-07-09T21:30:34;9.40;;;7.90;;
2756;SDS011;1386;50.862;6.494;2023-07-09T21:33:01;11.80;;;8.00;;
2756;SDS011;1386;50.862;6.494;2023-07-09T21:35:28;16.20;;;9.37;;
2756;SDS011;1386;50.862;6.494;2023-07-09T21:37:57;9.67;;;8.20;;
2756;SDS011;1386;50.862;6.494;2023-07-09T21:40:26;13.40;;;9.40;;
2756;SDS011;1386;50.862;6.494;2023-07-09T21:42:56;11.60;;;9.13;;
2756;SDS011;1386;50.862;6.494;2023-07-09T21:45:25;15.57;;;9.27;;
2756;SDS011;1386;50.862;6.494;2023-07-09T21:47:56;18.73;;;9.17;;
2756;SDS011;1386;50.862;6.494;2023-07-09T21:50:24;9.80;;;8.90;;
2756;SDS011;1386;50.862;6.494;2023-07-09T21:53:07;12.47;;;9.33;;
2756;SDS011;1386;50.862;6.494;2023-07-09T21:55:40;13.60;;;8.80;;
2756;SDS011;1386;50.862;6.494;2023-07-09T21:58:07;15.17;;;10.10;;
2756;SDS011;1386;50.862;6.494;2023-07-09T22:00:33;10.80;;;9.30;;
2756;SDS011;1386;50.862;6.494;2023-07-09T22:03:08;9.73;;;8.73;;
2756;SDS011;1386;50.862;6.494;2023-07-09T22:05:39;15.07;;;8.97;;
2756;SDS011;1386;50.862;6.494;2023-07-09T22:08:16;10.17;;;8.40;;
2756;SDS011;1386;50.862;6.494;2023-07-09T22:10:45;10.20;;;8.57;;
2756;SDS011;1386;50.862;6.494;2023-07-09T22:13:16;12.67;;;9.73;;
2756;SDS011;1386;50.862;6.494;2023-07-09T22:15:44;11.00;;;8.90;;
2756;SDS011;1386;50.862;6.494;2023-07-09T22:18:12;11.80;;;8.17;;
2756;SDS011;1386;50.862;6.494;2023-07-09T22:20:41;10.63;;;8.80;;
2756;SDS011;1386;50.862;6.494;2023-07-09T22:23:09;12.27;;;9.43;;
2756;SDS011;1386;50.862;6.494;2023-07-09T22:25:50;13.70;;;9.60;;
2756;SDS011;1386;50.862;6.494;2023-07-09T22:28:17;12.80;;;9.00;;
2756;SDS011;1386;50.862;6.494;2023-07-09T22:30:48;12.37;;;10.07;;
2756;SDS011;1386;50.862;6.494;2023-07-09T22:33:15;11.30;;;9.33;;
2756;SDS011;1386;50.862;6.494;2023-07-09T22:35:43;12.80;;;9.57;;
2756;SDS011;1386;50.862;6.494;2023-07-09T22:38:16;15.90;;;10.90;;
2756;SDS011;1386;50.862;6.494;2023-07-09T22:40:45;13.40;;;11.50;;
2756;SDS011;1386;50.862;6.494;2023-07-09T22:43:12;12.53;;;10.80;;
2756;SDS011;1386;50.862;6.494;2023-07-09T22:45:39;16.47;;;11.60;;
2756;SDS011;1386;50.862;6.494;2023-07-09T22:48:12;14.87;;;10.37;;
2756;SDS011;1386;50.862;6.494;2023-07-09T22:50:40;13.90;;;10.80;;
2756;SDS011;1386;50.862;6.494;2023-07-09T22:53:08;13.53;;;11.50;;
2756;SDS011;1386;50.862;6.494;2023-07-09T22:55:41;17.33;;;11.40;;
2756;SDS011;1386;50.862;6.494;2023-07-09T22:58:12;13.17;;;11.03;;
2756;SDS011;1386;50.862;6.494;2023-07-09T23:00:44;20.73;;;11.57;;
2756;SDS011;1386;50.862;6.494;2023-07-09T23:03:15;18.37;;;12.00;;
2756;SDS011;1386;50.862;6.494;2023-07-09T23:05:48;17.83;;;11.37;;
2756;SDS011;1386;50.862;6.494;2023-07-09T23:08:19;14.10;;;11.87;;
2756;SDS011;1386;50.862;6.494;2023-07-09T23:10:49;16.20;;;11.77;;
2756;SDS011;1386;50.862;6.494;2023-07-09T23:13:26;14.07;;;12.40;;